createdAt,value
2023-01-10T00:01:46.005Z,33.23
2023-01-10T00:04:14.287Z,33.06
2023-01-10T00:06:42.429Z,32.89
2023-01-10T00:09:11.830Z,32.93
2023-01-10T00:11:57.981Z,33.48
2023-01-10T00:14:29.047Z,33.09
2023-01-10T00:16:57.553Z,32.84
2023-01-10T00:19:25.364Z,33.27
2023-01-10T00:21:53.557Z,33.20
2023-01-10T00:24:22.394Z,33.59
2023-01-10T00:26:51.776Z,33.60
2023-01-10T00:29:26.103Z,33.81
2023-01-10T00:31:54.593Z,34.00
2023-01-10T00:34:23.323Z,34.00
2023-01-10T00:36:51.080Z,34.02
2023-01-10T00:39:21.560Z,34.20
2023-01-10T00:42:07.925Z,34.56
2023-01-10T00:44:35.741Z,34.90
2023-01-10T00:47:03.582Z,34.26
2023-01-10T00:49:33.832Z,33.84
2023-01-10T00:52:02.873Z,33.93
2023-01-10T00:54:30.654Z,33.80
2023-01-10T00:57:01.393Z,33.62
2023-01-10T00:59:30.362Z,33.59
2023-01-10T01:01:58.292Z,33.98
2023-01-10T01:04:27.428Z,34.10
2023-01-10T01:06:55.089Z,34.10
2023-01-10T01:09:22.746Z,34.26
2023-01-10T01:11:50.447Z,34.11
2023-01-10T01:14:18.201Z,33.81
2023-01-10T01:16:45.863Z,33.71
2023-01-10T01:19:13.588Z,34.11
2023-01-10T01:21:41.299Z,33.86
2023-01-10T01:24:10.963Z,34.17
2023-01-10T01:26:40.371Z,34.44
2023-01-10T01:29:08.241Z,34.45
2023-01-10T01:31:36.070Z,34.38
2023-01-10T01:34:04.002Z,34.67
2023-01-10T01:36:31.925Z,34.56
2023-01-10T01:38:59.721Z,34.52
2023-01-10T01:41:45.888Z,34.64
2023-01-10T01:44:18.796Z,34.27
2023-01-10T01:47:09.244Z,34.16
2023-01-10T01:49:40.661Z,34.81
2023-01-10T01:52:22.556Z,34.93
2023-01-10T01:54:50.618Z,35.02
2023-01-10T01:57:24.883Z,34.69
2023-01-10T01:59:55.322Z,34.77
2023-01-10T02:02:27.357Z,34.63
2023-01-10T02:05:00.449Z,34.68
2023-01-10T02:07:32.078Z,35.08
2023-01-10T02:10:04.967Z,35.05
2023-01-10T02:12:33.390Z,35.28
2023-01-10T02:15:02.955Z,34.90
2023-01-10T02:17:31.376Z,34.75
2023-01-10T02:20:03.601Z,35.17
2023-01-10T02:22:53.262Z,35.12
2023-01-10T02:25:51.355Z,34.86
2023-01-10T02:28:22.442Z,34.76
2023-01-10T02:31:16.098Z,35.02
2023-01-10T02:33:58.059Z,34.49
2023-01-10T02:36:39.951Z,34.48
2023-01-10T02:39:19.910Z,34.92
2023-01-10T02:42:11.897Z,34.96
2023-01-10T02:44:50.727Z,34.93
2023-01-10T02:47:19.476Z,35.50
2023-01-10T02:49:52.272Z,35.69
2023-01-10T02:52:27.905Z,35.62
2023-01-10T02:55:00.900Z,35.63
2023-01-10T02:58:08.350Z,34.93
2023-01-10T03:00:45.608Z,34.69
2023-01-10T03:03:33.760Z,34.88
2023-01-10T03:06:26.671Z,34.62
2023-01-10T03:09:06.621Z,34.70
2023-01-10T03:11:41.195Z,34.62
2023-01-10T03:14:16.725Z,34.43
2023-01-10T03:16:49.331Z,35.11
2023-01-10T03:19:21.708Z,34.40
2023-01-10T03:21:54.032Z,34.60
2023-01-10T03:24:29.984Z,34.74
2023-01-10T03:27:20.425Z,34.88
2023-01-10T03:30:15.917Z,34.85
2023-01-10T03:32:44.365Z,34.88
2023-01-10T03:35:14.046Z,34.63
2023-01-10T03:37:59.086Z,34.62
2023-01-10T03:40:46.930Z,34.49
2023-01-10T03:43:45.196Z,34.38
2023-01-10T03:46:26.343Z,34.58
2023-01-10T03:48:55.458Z,34.65
2023-01-10T03:51:24.065Z,34.67
2023-01-10T03:53:51.808Z,34.62
2023-01-10T03:56:19.650Z,34.25
2023-01-10T03:58:47.821Z,34.45
2023-01-10T04:01:15.679Z,34.38
2023-01-10T04:03:43.738Z,34.92
2023-01-10T04:06:11.506Z,34.72
2023-01-10T04:08:39.243Z,35.10
2023-01-10T04:11:07.083Z,34.83
2023-01-10T04:13:35.171Z,34.72
2023-01-10T04:16:03.089Z,34.65
2023-01-10T04:18:30.940Z,34.64
2023-01-10T04:20:58.869Z,34.98
2023-01-10T04:23:26.747Z,35.17
2023-01-10T04:25:54.434Z,34.95
2023-01-10T04:28:24.441Z,34.96
2023-01-10T04:30:52.604Z,35.27
2023-01-10T04:33:20.448Z,35.00
2023-01-10T04:35:52.391Z,34.81
2023-01-10T04:38:20.566Z,35.05
2023-01-10T04:40:56.031Z,35.71
2023-01-10T04:43:25.249Z,35.48
2023-01-10T04:45:53.070Z,35.49
2023-01-10T04:48:21.274Z,34.94
2023-01-10T04:50:52.581Z,35.17
2023-01-10T04:53:21.344Z,34.91
2023-01-10T04:55:49.154Z,35.06
2023-01-10T04:58:17.274Z,34.83
2023-01-10T05:00:45.140Z,35.13
2023-01-10T05:03:13.043Z,35.01
2023-01-10T05:05:40.759Z,34.60
2023-01-10T05:08:08.500Z,34.51
2023-01-10T05:10:36.284Z,35.06
2023-01-10T05:13:04.191Z,34.84
2023-01-10T05:15:31.845Z,34.73
2023-01-10T05:18:01.282Z,34.67
2023-01-10T05:20:29.113Z,34.68
2023-01-10T05:22:57.060Z,35.21
2023-01-10T05:25:24.963Z,34.79
2023-01-10T05:27:52.746Z,34.31
2023-01-10T05:30:20.704Z,34.66
2023-01-10T05:32:48.421Z,37.32
2023-01-10T05:35:17.398Z,35.64
2023-01-10T05:37:45.814Z,35.09
2023-01-10T05:40:13.817Z,35.01
2023-01-10T05:42:42.205Z,35.42
2023-01-10T05:45:10.462Z,35.61
2023-01-10T05:47:39.755Z,35.07
2023-01-10T05:50:08.246Z,35.64
2023-01-10T05:52:36.136Z,35.87
2023-01-10T05:55:04.240Z,35.65
2023-01-10T05:57:32.278Z,36.44
2023-01-10T06:00:00.810Z,36.54
2023-01-10T06:02:29.294Z,37.21
2023-01-10T06:04:57.370Z,36.86
2023-01-10T06:07:25.565Z,36.37
2023-01-10T06:09:53.252Z,36.46
2023-01-10T06:12:21.232Z,36.02
2023-01-10T06:14:48.967Z,35.65
2023-01-10T06:17:19.283Z,35.77
2023-01-10T06:19:49.752Z,36.18
2023-01-10T06:22:17.552Z,36.54
2023-01-10T06:24:46.634Z,36.50
2023-01-10T06:27:14.511Z,36.51
2023-01-10T06:29:42.268Z,36.89
2023-01-10T06:32:10.328Z,36.51
2023-01-10T06:34:37.994Z,36.47
2023-01-10T06:37:05.984Z,36.83
2023-01-10T06:39:33.726Z,36.55
2023-01-10T06:42:02.491Z,36.53
2023-01-10T06:44:30.119Z,36.51
2023-01-10T06:46:57.911Z,36.54
2023-01-10T06:49:25.635Z,37.26
2023-01-10T06:51:53.527Z,36.50
2023-01-10T06:54:21.660Z,36.48
2023-01-10T06:56:49.612Z,35.93
2023-01-10T06:59:17.441Z,35.87
2023-01-10T07:01:45.408Z,35.97
2023-01-10T07:04:13.385Z,35.62
2023-01-10T07:06:41.792Z,35.81
2023-01-10T07:09:09.513Z,35.99
2023-01-10T07:11:37.620Z,35.56
2023-01-10T07:14:05.598Z,35.15
2023-01-10T07:16:33.276Z,34.61
2023-01-10T07:19:01.272Z,35.03
2023-01-10T07:21:29.062Z,34.73
2023-01-10T07:23:56.816Z,35.47
2023-01-10T07:26:24.598Z,35.64
2023-01-10T07:28:52.338Z,35.51
2023-01-10T07:31:23.670Z,35.35
2023-01-10T07:33:52.853Z,35.83
2023-01-10T07:36:21.664Z,35.72
2023-01-10T07:38:49.345Z,35.20
2023-01-10T07:41:17.133Z,35.82
2023-01-10T07:43:44.833Z,35.95
2023-01-10T07:46:12.744Z,36.39
2023-01-10T07:48:43.169Z,36.73
2023-01-10T07:51:10.947Z,36.48
2023-01-10T07:53:39.351Z,36.02
2023-01-10T07:56:07.389Z,37.48
2023-01-10T07:58:35.962Z,37.13
2023-01-10T08:01:05.547Z,36.86
2023-01-10T08:03:33.821Z,36.68
2023-01-10T08:06:06.772Z,36.35
2023-01-10T08:08:35.226Z,36.43
2023-01-10T08:11:03.668Z,36.12
2023-01-10T08:13:34.492Z,35.78
2023-01-10T08:16:06.441Z,36.52
2023-01-10T08:18:35.221Z,36.76
2023-01-10T08:21:03.122Z,37.10
2023-01-10T08:23:32.516Z,37.41
2023-01-10T08:26:00.376Z,38.13
2023-01-10T08:28:29.247Z,37.24
2023-01-10T08:30:57.423Z,36.97
2023-01-10T08:33:25.688Z,36.70
2023-01-10T08:35:53.442Z,36.11
2023-01-10T08:38:21.035Z,35.93
2023-01-10T08:40:48.934Z,36.08
2023-01-10T08:43:18.034Z,35.94
2023-01-10T08:45:45.907Z,35.24
2023-01-10T08:48:14.435Z,35.12
2023-01-10T08:50:42.150Z,35.44
2023-01-10T08:53:10.870Z,34.87
2023-01-10T08:55:38.685Z,34.87
2023-01-10T08:58:06.848Z,35.05
2023-01-10T09:00:34.696Z,35.41
2023-01-10T09:03:02.396Z,35.50
2023-01-10T09:05:30.162Z,35.13
2023-01-10T09:08:02.427Z,34.92
2023-01-10T09:10:30.789Z,35.32
2023-01-10T09:13:01.992Z,35.25
2023-01-10T09:15:33.196Z,35.21
2023-01-10T09:18:04.832Z,34.61
2023-01-10T09:20:34.944Z,34.60
2023-01-10T09:23:11.031Z,35.14
2023-01-10T09:25:39.266Z,35.11
2023-01-10T09:28:07.242Z,34.98
2023-01-10T09:30:35.367Z,35.32
2023-01-10T09:33:04.190Z,34.96
2023-01-10T09:35:34.964Z,35.41
2023-01-10T09:38:03.338Z,35.37
2023-01-10T09:40:58.139Z,35.60
2023-01-10T09:43:35.947Z,35.39
2023-01-10T09:46:21.298Z,35.26
2023-01-10T09:49:07.422Z,35.30
2023-01-10T09:51:40.712Z,35.30
2023-01-10T09:54:33.470Z,35.09
2023-01-10T09:57:02.357Z,35.45
2023-01-10T09:59:38.331Z,34.83
2023-01-10T10:02:25.268Z,34.68
2023-01-10T10:05:02.028Z,34.81
2023-01-10T10:07:30.721Z,34.91
2023-01-10T10:09:58.916Z,35.02
2023-01-10T10:12:45.993Z,35.06
2023-01-10T10:15:29.095Z,34.92
2023-01-10T10:18:16.852Z,34.48
2023-01-10T10:20:58.994Z,34.48
2023-01-10T10:24:00.356Z,34.68
2023-01-10T10:26:39.844Z,34.35
2023-01-10T10:29:45.475Z,34.36
2023-01-10T10:32:28.342Z,34.74
2023-01-10T10:35:05.395Z,33.66
2023-01-10T10:37:48.319Z,34.08
2023-01-10T10:40:22.297Z,33.88
2023-01-10T10:42:54.055Z,34.01
2023-01-10T10:45:54.712Z,33.49
2023-01-10T10:48:27.417Z,33.67
2023-01-10T10:51:27.504Z,33.76
2023-01-10T10:53:57.552Z,33.82
2023-01-10T10:56:27.798Z,34.00
2023-01-10T10:58:58.636Z,33.68
2023-01-10T11:01:27.191Z,33.72
2023-01-10T11:04:02.419Z,34.03
2023-01-10T11:06:34.290Z,34.05
2023-01-10T11:09:04.983Z,33.87
2023-01-10T11:11:35.880Z,33.79
2023-01-10T11:14:06.385Z,34.18
2023-01-10T11:16:37.337Z,34.27
2023-01-10T11:19:19.740Z,33.80
2023-01-10T11:22:08.561Z,34.12
2023-01-10T11:24:50.349Z,33.85
2023-01-10T11:27:24.672Z,33.61
2023-01-10T11:30:03.694Z,33.60
2023-01-10T11:32:35.803Z,33.64
2023-01-10T11:35:09.829Z,33.44
2023-01-10T11:37:37.591Z,33.73
2023-01-10T11:40:24.232Z,33.70
2023-01-10T11:42:59.234Z,33.68
2023-01-10T11:45:31.579Z,34.01
2023-01-10T11:48:08.649Z,44.01
2023-01-10T11:50:41.381Z,36.36
2023-01-10T11:53:37.092Z,34.83
2023-01-10T11:56:05.678Z,35.11
2023-01-10T11:58:36.841Z,34.77
2023-01-10T12:01:04.927Z,34.88
2023-01-10T12:03:37.251Z,34.63
2023-01-10T12:06:09.511Z,34.94
2023-01-10T12:08:39.583Z,34.66
2023-01-10T12:11:25.244Z,34.75
2023-01-10T12:13:58.840Z,34.58
2023-01-10T12:16:32.447Z,34.32
2023-01-10T12:19:04.821Z,34.83
2023-01-10T12:21:41.475Z,34.23
2023-01-10T12:24:19.292Z,34.37
2023-01-10T12:26:48.140Z,34.69
2023-01-10T12:29:19.635Z,34.49
2023-01-10T12:31:47.502Z,34.67
2023-01-10T12:34:23.388Z,34.97
2023-01-10T12:36:58.573Z,35.36
2023-01-10T12:39:35.196Z,35.43
2023-01-10T12:42:37.671Z,35.20
2023-01-10T12:45:08.812Z,34.59
2023-01-10T12:48:10.745Z,34.45
2023-01-10T12:50:46.373Z,34.58
2023-01-10T12:53:33.125Z,35.19
2023-01-10T12:56:06.140Z,34.79
2023-01-10T12:58:52.912Z,34.53
2023-01-10T13:01:30.019Z,34.58
2023-01-10T13:04:03.819Z,34.49
2023-01-10T13:06:40.182Z,34.23
2023-01-10T13:09:30.604Z,34.19
2023-01-10T13:12:09.541Z,33.75
2023-01-10T13:14:46.183Z,33.51
2023-01-10T13:17:20.034Z,33.68
2023-01-10T13:20:16.528Z,33.49
2023-01-10T13:22:48.154Z,33.74
2023-01-10T13:25:38.018Z,33.62
2023-01-10T13:28:14.893Z,34.04
2023-01-10T13:30:42.913Z,33.76
2023-01-10T13:33:26.066Z,33.95
2023-01-10T13:35:58.034Z,34.24
2023-01-10T13:38:35.521Z,33.94
2023-01-10T13:41:29.200Z,34.10
2023-01-10T13:44:07.267Z,33.58
2023-01-10T13:46:40.941Z,33.64
2023-01-10T13:49:11.715Z,33.71
2023-01-10T13:51:59.792Z,33.61
2023-01-10T13:54:28.485Z,33.64
2023-01-10T13:56:56.366Z,33.90
2023-01-10T13:59:42.647Z,34.24
2023-01-10T14:02:28.989Z,34.00
2023-01-10T14:05:06.172Z,33.66
2023-01-10T14:07:41.895Z,33.51
2023-01-10T14:10:19.855Z,33.92
2023-01-10T14:12:57.218Z,33.90
2023-01-10T14:15:38.977Z,33.66
2023-01-10T14:18:06.718Z,33.91
2023-01-10T14:20:36.743Z,34.28
2023-01-10T14:23:16.420Z,34.05
2023-01-10T14:25:45.734Z,34.02
2023-01-10T14:28:25.474Z,34.22
2023-01-10T14:31:08.928Z,34.50
2023-01-10T14:33:37.785Z,34.15
2023-01-10T14:36:14.745Z,34.41
2023-01-10T14:38:46.707Z,34.18
2023-01-10T14:41:28.062Z,34.16
2023-01-10T14:44:11.772Z,34.47
2023-01-10T14:46:52.406Z,34.29
2023-01-10T14:49:24.558Z,34.18
2023-01-10T14:52:10.835Z,34.20
2023-01-10T14:54:38.676Z,34.48
2023-01-10T14:57:19.094Z,34.55
2023-01-10T14:59:48.059Z,34.24
2023-01-10T15:02:26.007Z,34.52
2023-01-10T15:05:09.667Z,34.24
2023-01-10T15:07:38.501Z,34.46
2023-01-10T15:10:25.064Z,34.17
2023-01-10T15:12:57.552Z,34.47
2023-01-10T15:15:32.593Z,34.65
2023-01-10T15:18:05.639Z,34.64
2023-01-10T15:20:37.528Z,34.76
2023-01-10T15:23:05.371Z,34.47
2023-01-10T15:25:39.039Z,34.77
2023-01-10T15:28:15.761Z,34.70
2023-01-10T15:30:44.367Z,34.52
2023-01-10T15:33:27.061Z,33.83
2023-01-10T15:35:55.907Z,33.79
2023-01-10T15:38:30.237Z,33.67
2023-01-10T15:41:04.370Z,33.51
2023-01-10T15:43:35.028Z,33.52
2023-01-10T15:46:05.607Z,33.41
2023-01-10T15:48:41.032Z,33.55
2023-01-10T15:51:25.817Z,34.91
2023-01-10T15:53:57.481Z,34.69
2023-01-10T15:56:30.174Z,34.69
2023-01-10T15:59:00.108Z,34.68
2023-01-10T16:01:29.138Z,34.99
2023-01-10T16:04:03.997Z,35.73
2023-01-10T16:06:31.762Z,35.27
2023-01-10T16:09:03.694Z,34.65
2023-01-10T16:12:05.313Z,35.55
2023-01-10T16:14:33.816Z,35.40
2023-01-10T16:17:05.133Z,36.02
2023-01-10T16:19:33.156Z,35.03
2023-01-10T16:22:01.318Z,35.27
2023-01-10T16:24:32.366Z,35.31
2023-01-10T16:27:04.410Z,35.07
2023-01-10T16:29:32.821Z,34.67
2023-01-10T16:32:00.564Z,34.94
2023-01-10T16:34:28.559Z,35.08
2023-01-10T16:36:56.510Z,35.55
2023-01-10T16:39:24.850Z,35.79
2023-01-10T16:42:11.483Z,35.49
2023-01-10T16:44:40.490Z,35.75
2023-01-10T16:47:08.198Z,35.64
2023-01-10T16:49:36.040Z,35.69
2023-01-10T16:52:04.080Z,36.30
2023-01-10T16:54:35.540Z,35.59
2023-01-10T16:57:03.619Z,35.45
2023-01-10T16:59:31.910Z,35.26
2023-01-10T17:01:59.829Z,35.38
2023-01-10T17:04:35.255Z,35.64
2023-01-10T17:07:03.472Z,35.57
2023-01-10T17:09:31.466Z,35.59
2023-01-10T17:12:11.096Z,36.76
2023-01-10T17:14:39.228Z,36.50
2023-01-10T17:17:06.968Z,36.74
2023-01-10T17:19:34.862Z,36.81
2023-01-10T17:22:02.937Z,36.95
2023-01-10T17:24:31.135Z,37.33
2023-01-10T17:26:58.956Z,36.98
2023-01-10T17:29:26.781Z,37.29
2023-01-10T17:31:54.601Z,37.28
2023-01-10T17:34:22.555Z,37.85
2023-01-10T17:36:50.436Z,37.91
2023-01-10T17:39:18.260Z,37.71
2023-01-10T17:41:46.075Z,37.99
2023-01-10T17:44:14.218Z,39.17
2023-01-10T17:46:42.101Z,38.43
2023-01-10T17:49:11.866Z,38.77
2023-01-10T17:51:41.072Z,38.66
2023-01-10T17:54:08.736Z,38.56
2023-01-10T17:56:36.523Z,38.55
2023-01-10T17:59:04.233Z,38.64
2023-01-10T18:01:32.233Z,38.73
2023-01-10T18:04:00.337Z,38.88
2023-01-10T18:06:28.916Z,39.75
2023-01-10T18:08:56.773Z,39.96
2023-01-10T18:11:25.444Z,39.49
2023-01-10T18:13:53.549Z,39.73
2023-01-10T18:16:22.694Z,40.32
2023-01-10T18:18:50.858Z,40.72
2023-01-10T18:21:20.925Z,40.53
2023-01-10T18:23:50.080Z,40.49
2023-01-10T18:26:18.060Z,39.53
2023-01-10T18:28:45.922Z,40.40
2023-01-10T18:31:17.296Z,41.73
2023-01-10T18:33:47.025Z,41.24
2023-01-10T18:36:17.644Z,40.42
2023-01-10T18:38:49.120Z,39.94
2023-01-10T18:41:17.753Z,39.84
2023-01-10T18:43:46.266Z,39.85
2023-01-10T18:46:20.535Z,40.30
2023-01-10T18:48:51.686Z,39.84
2023-01-10T18:51:19.748Z,40.07
2023-01-10T18:53:49.075Z,40.05
2023-01-10T18:56:17.343Z,40.16
2023-01-10T18:58:45.391Z,40.03
2023-01-10T19:01:16.542Z,40.23
2023-01-10T19:03:44.996Z,40.28
2023-01-10T19:06:16.806Z,40.45
2023-01-10T19:08:46.577Z,41.04
2023-01-10T19:11:16.624Z,41.18
2023-01-10T19:13:45.877Z,41.49
2023-01-10T19:16:19.555Z,41.96
2023-01-10T19:18:53.563Z,42.12
2023-01-10T19:21:24.980Z,42.83
2023-01-10T19:23:58.383Z,42.30
2023-01-10T19:26:26.565Z,44.28
2023-01-10T19:28:54.739Z,43.38
2023-01-10T19:31:29.126Z,44.69
2023-01-10T19:34:01.049Z,43.99
2023-01-10T19:36:34.775Z,43.82
2023-01-10T19:39:03.064Z,43.90
2023-01-10T19:41:31.173Z,43.46
2023-01-10T19:44:01.806Z,43.08
2023-01-10T19:46:32.596Z,45.64
2023-01-10T19:49:07.822Z,45.20
2023-01-10T19:51:40.419Z,44.93
2023-01-10T19:54:09.521Z,44.06
2023-01-10T19:56:37.400Z,44.67
2023-01-10T19:59:05.409Z,44.56
2023-01-10T20:01:34.100Z,43.76
2023-01-10T20:04:04.365Z,43.85
2023-01-10T20:06:35.574Z,44.41
2023-01-10T20:09:04.789Z,44.85
2023-01-10T20:11:38.288Z,44.62
2023-01-10T20:14:08.902Z,44.60
2023-01-10T20:16:37.651Z,44.55
2023-01-10T20:19:09.200Z,44.68
2023-01-10T20:21:37.905Z,44.52
2023-01-10T20:24:16.805Z,45.21
2023-01-10T20:26:46.184Z,44.87
2023-01-10T20:29:14.947Z,44.66
2023-01-10T20:31:43.430Z,45.05
2023-01-10T20:34:11.160Z,45.09
2023-01-10T20:36:39.844Z,45.07
2023-01-10T20:39:07.605Z,46.20
2023-01-10T20:41:37.337Z,46.96
2023-01-10T20:44:05.084Z,45.91
2023-01-10T20:46:34.148Z,45.89
2023-01-10T20:49:03.359Z,46.64
2023-01-10T20:51:33.522Z,46.34
2023-01-10T20:54:02.323Z,46.93
2023-01-10T20:56:31.713Z,46.80
2023-01-10T20:59:00.049Z,46.81
2023-01-10T21:01:34.577Z,46.42
2023-01-10T21:04:09.834Z,47.79
2023-01-10T21:06:37.861Z,46.97
2023-01-10T21:09:06.192Z,48.14
2023-01-10T21:11:47.532Z,49.42
2023-01-10T21:14:19.832Z,50.95
2023-01-10T21:16:49.435Z,49.14
2023-01-10T21:19:17.491Z,50.10
2023-01-10T21:21:45.324Z,48.60
2023-01-10T21:24:13.187Z,47.55
2023-01-10T21:26:41.008Z,47.10
2023-01-10T21:29:08.902Z,46.66
2023-01-10T21:31:38.166Z,46.75
2023-01-10T21:34:05.975Z,46.66
2023-01-10T21:36:33.703Z,46.51
2023-01-10T21:39:01.490Z,46.79
2023-01-10T21:41:47.880Z,46.47
2023-01-10T21:44:15.746Z,46.29
2023-01-10T21:46:46.915Z,46.23
2023-01-10T21:49:15.501Z,46.18
2023-01-10T21:51:44.025Z,46.20
2023-01-10T21:54:11.846Z,46.53
2023-01-10T21:56:40.865Z,46.53
2023-01-10T21:59:08.764Z,46.32
2023-01-10T22:01:36.460Z,46.57
2023-01-10T22:04:04.501Z,46.82
2023-01-10T22:06:32.437Z,46.50
2023-01-10T22:09:00.229Z,46.69
2023-01-10T22:11:28.083Z,46.44
2023-01-10T22:13:57.301Z,46.98
2023-01-10T22:16:25.154Z,47.23
2023-01-10T22:18:53.029Z,46.69
2023-01-10T22:21:22.398Z,47.51
2023-01-10T22:23:50.258Z,48.30
2023-01-10T22:26:17.961Z,47.19
2023-01-10T22:28:46.019Z,46.84
2023-01-10T22:31:14.052Z,46.76
2023-01-10T22:33:42.877Z,46.88
2023-01-10T22:36:15.514Z,46.94
2023-01-10T22:38:44.133Z,46.44
2023-01-10T22:41:20.139Z,46.41
2023-01-10T22:43:48.132Z,46.59
2023-01-10T22:46:16.345Z,47.26
2023-01-10T22:48:44.900Z,47.05
2023-01-10T22:51:14.265Z,46.79
2023-01-10T22:53:46.059Z,46.92
2023-01-10T22:56:13.834Z,48.23
2023-01-10T22:58:47.803Z,48.83
2023-01-10T23:01:18.571Z,48.51
2023-01-10T23:03:46.625Z,47.21
2023-01-10T23:06:15.400Z,47.59
2023-01-10T23:08:43.679Z,49.06
2023-01-10T23:11:14.197Z,49.66
2023-01-10T23:13:42.496Z,48.45
2023-01-10T23:16:14.804Z,47.46
2023-01-10T23:18:43.213Z,47.34
2023-01-10T23:21:11.626Z,46.70
2023-01-10T23:23:39.340Z,46.92
2023-01-10T23:26:11.110Z,46.71
2023-01-10T23:28:47.232Z,46.55
2023-01-10T23:31:17.733Z,46.72
2023-01-10T23:33:45.898Z,46.38
2023-01-10T23:36:14.124Z,46.14
2023-01-10T23:38:41.982Z,46.81
2023-01-10T23:41:09.890Z,46.60
2023-01-10T23:43:37.985Z,46.85
2023-01-10T23:46:06.843Z,46.58
2023-01-10T23:48:35.991Z,46.67
2023-01-10T23:51:04.026Z,46.58
2023-01-10T23:53:31.750Z,46.67
2023-01-10T23:56:05.335Z,46.84
2023-01-10T23:58:33.059Z,46.95
